DAAT/TMR METAR and TAF weather

Enter ICAO airport designator
Station Type Date Time Source
DAAT METAR 2021/09/27 08:00 UTC NOAA

DAAT 270800Z 10009KT 070V130 CAVOK 28/00 Q1024


Station Type Date Time Source
DAAT Decoded METAR 2021/09/27 08:00 UTC NOAA

Tamanrasset / Aguenna, Algeria (DAAT) 22-49N 005-28E
Sep 27, 2021 - 04:00 AM EDT / 2021.09.27 0800 UTC
Wind: from the E (100 degrees) at 10 MPH (9 KT) (direction variable):0
Visibility: greater than 7 mile(s):0
Temperature: 82 F (28 C)
Dew Point: 32 F (0 C)
Relative Humidity: 16%
Pressure (altimeter): 30.24 in. Hg (1024 hPa)
ob: DAAT 270800Z 10009KT 070V130 CAVOK 28/00 Q1024
cycle: 8

Station Type Date Time Source
DAAT TAF 2021/09/27 06:30 UTC NOAA

TAF DAAT 270500Z 2706/2806 08010KT CAVOK PROB30
TEMPO 2706/2710 10015G25KT PROB30
TEMPO 2715/2720 10015G25KT

Example: see airport list